createdAt,value
2017-09-01T00:00:09.001Z,99.99
2017-09-01T00:01:17.842Z,99.99
2017-09-01T00:02:26.684Z,99.99
2017-09-01T00:03:35.522Z,99.99
2017-09-01T00:04:44.368Z,99.99
2017-09-01T00:05:53.360Z,99.99
2017-09-01T00:07:02.201Z,99.99
2017-09-01T00:08:11.042Z,99.99
2017-09-01T00:09:19.879Z,99.99
2017-09-01T00:10:28.722Z,99.99
2017-09-01T00:11:37.612Z,99.99
2017-09-01T00:12:46.453Z,99.99
2017-09-01T00:13:55.294Z,99.99
2017-09-01T00:15:04.137Z,99.99
2017-09-01T00:16:12.978Z,99.99
2017-09-01T00:17:21.869Z,99.99
2017-09-01T00:18:30.710Z,99.99
2017-09-01T00:19:39.551Z,99.99
2017-09-01T00:20:48.394Z,99.99
2017-09-01T00:21:57.233Z,99.99
2017-09-01T00:23:06.126Z,99.99
2017-09-01T00:24:14.965Z,99.99
2017-09-01T00:25:23.806Z,99.99
2017-09-01T00:26:32.646Z,99.99
2017-09-01T00:27:41.487Z,99.99
2017-09-01T00:28:50.328Z,99.99
2017-09-01T00:29:59.168Z,99.99
2017-09-01T00:31:08.008Z,99.99
2017-09-01T00:32:16.849Z,99.99
2017-09-01T00:33:25.691Z,99.99
2017-09-01T00:34:34.836Z,99.99
2017-09-01T00:35:43.673Z,99.99
2017-09-01T00:36:52.845Z,99.99
2017-09-01T00:38:01.683Z,99.99
2017-09-01T00:39:10.525Z,99.99
2017-09-01T00:40:19.515Z,99.99
2017-09-01T00:41:28.356Z,99.99
2017-09-01T00:42:37.196Z,99.99
2017-09-01T00:43:46.373Z,99.99
2017-09-01T00:44:55.216Z,99.99
2017-09-01T00:46:04.156Z,99.99
2017-09-01T00:47:12.997Z,99.99
2017-09-01T00:48:21.838Z,99.99
2017-09-01T00:49:30.681Z,99.99
2017-09-01T00:50:39.526Z,99.99
2017-09-01T00:51:48.515Z,99.99
2017-09-01T00:52:57.354Z,99.99
2017-09-01T00:54:06.197Z,99.99
2017-09-01T00:55:15.370Z,99.99
2017-09-01T00:56:24.544Z,99.99
2017-09-01T00:57:33.685Z,99.99
2017-09-01T00:58:42.526Z,99.99
2017-09-01T00:59:51.373Z,99.99
2017-09-01T01:01:00.215Z,99.99
2017-09-01T01:02:09.060Z,99.99
2017-09-01T01:03:18.052Z,99.99
2017-09-01T01:04:26.892Z,99.99
2017-09-01T01:05:35.735Z,99.99
2017-09-01T01:06:44.578Z,99.99
2017-09-01T01:07:53.420Z,99.99
2017-09-01T01:09:02.362Z,99.99
2017-09-01T01:10:11.206Z,99.99
2017-09-01T01:11:20.046Z,99.99
2017-09-01T01:12:28.890Z,99.99
2017-09-01T01:13:37.730Z,99.99
2017-09-01T01:14:46.772Z,99.99
2017-09-01T01:15:55.612Z,99.99
2017-09-01T01:17:04.448Z,99.99
2017-09-01T01:18:13.287Z,99.99
2017-09-01T01:19:22.129Z,99.99
2017-09-01T01:20:31.121Z,99.99
2017-09-01T01:21:39.965Z,99.99
2017-09-01T01:22:48.805Z,99.99
2017-09-01T01:23:57.976Z,99.99
2017-09-01T01:25:06.817Z,99.99
2017-09-01T01:26:16.041Z,99.99
2017-09-01T01:27:24.882Z,99.99
2017-09-01T01:28:33.722Z,99.99
2017-09-01T01:29:42.562Z,99.99
2017-09-01T01:30:51.404Z,99.99
2017-09-01T01:32:00.296Z,99.99
2017-09-01T01:33:09.135Z,99.99
2017-09-01T01:34:17.975Z,99.99
2017-09-01T01:35:26.818Z,99.99
2017-09-01T01:36:35.659Z,99.99
2017-09-01T01:37:44.654Z,99.99
2017-09-01T01:38:53.493Z,99.99
2017-09-01T01:40:02.335Z,99.99
2017-09-01T01:41:11.176Z,99.99
2017-09-01T01:42:20.021Z,99.99
2017-09-01T01:43:28.862Z,99.99
2017-09-01T01:44:37.703Z,99.99
2017-09-01T01:45:46.543Z,99.99
2017-09-01T01:46:55.387Z,99.99
2017-09-01T01:48:04.229Z,99.99
2017-09-01T01:49:13.222Z,99.99
2017-09-01T01:50:22.063Z,99.99
2017-09-01T01:51:30.903Z,99.99
2017-09-01T01:52:39.744Z,99.99
2017-09-01T01:53:48.918Z,99.99
2017-09-01T01:54:58.010Z,99.99
2017-09-01T01:56:06.853Z,99.99
2017-09-01T01:57:15.696Z,99.99
2017-09-01T01:58:24.539Z,99.99
2017-09-01T01:59:33.379Z,99.99
2017-09-01T02:00:42.219Z,99.99
2017-09-01T02:01:51.060Z,99.99
2017-09-01T02:02:59.902Z,99.99
2017-09-01T02:04:09.072Z,99.99
2017-09-01T02:05:17.914Z,99.99
2017-09-01T02:06:26.903Z,99.99
2017-09-01T02:07:35.744Z,99.99
2017-09-01T02:08:44.585Z,99.99
2017-09-01T02:09:53.424Z,99.99
2017-09-01T02:11:02.267Z,99.99
2017-09-01T02:12:11.357Z,99.99
2017-09-01T02:13:20.196Z,99.99
2017-09-01T02:14:29.040Z,99.99
2017-09-01T02:15:37.881Z,99.99
2017-09-01T02:16:46.723Z,99.99
2017-09-01T02:17:55.714Z,99.99
2017-09-01T02:19:04.556Z,99.99
2017-09-01T02:20:13.400Z,99.99
2017-09-01T02:21:22.574Z,99.99
2017-09-01T02:22:31.419Z,99.99
2017-09-01T02:23:40.259Z,99.99
2017-09-01T02:24:49.099Z,99.99
2017-09-01T02:25:57.942Z,99.99
2017-09-01T02:27:06.783Z,99.99
2017-09-01T02:28:15.622Z,99.99
2017-09-01T02:29:24.515Z,99.99
2017-09-01T02:30:33.355Z,99.99
2017-09-01T02:31:42.193Z,99.99
2017-09-01T02:32:51.136Z,99.99
2017-09-01T02:33:59.977Z,99.99
2017-09-01T02:35:08.868Z,99.99
2017-09-01T02:36:17.710Z,99.99
2017-09-01T02:37:26.549Z,99.99
2017-09-01T02:38:35.393Z,99.99
2017-09-01T02:39:44.234Z,99.99
2017-09-01T02:40:53.328Z,99.99
2017-09-01T02:42:02.168Z,99.99
2017-09-01T02:43:11.011Z,99.99
2017-09-01T02:44:19.851Z,99.99
2017-09-01T02:45:28.693Z,99.99
2017-09-01T02:46:37.689Z,99.99
2017-09-01T02:47:46.860Z,99.99
2017-09-01T02:48:55.704Z,99.99
2017-09-01T02:50:04.547Z,99.99
2017-09-01T02:51:13.390Z,99.99
2017-09-01T02:52:22.532Z,99.99
2017-09-01T02:53:31.373Z,99.99
2017-09-01T02:54:40.558Z,99.99
2017-09-01T02:55:49.397Z,99.99
2017-09-01T02:56:58.240Z,99.99
2017-09-01T02:58:07.180Z,99.99
2017-09-01T02:59:16.021Z,99.99
2017-09-01T03:00:25.194Z,99.99
2017-09-01T03:01:34.035Z,99.99
2017-09-01T03:02:42.878Z,99.99
2017-09-01T03:03:51.869Z,99.99
2017-09-01T03:05:00.709Z,99.99
2017-09-01T03:06:09.884Z,99.99
2017-09-01T03:07:18.726Z,99.99
2017-09-01T03:08:27.567Z,99.99
2017-09-01T03:09:36.609Z,99.99
2017-09-01T03:10:45.449Z,99.99
2017-09-01T03:11:54.289Z,99.99
2017-09-01T03:13:03.460Z,99.99
2017-09-01T03:14:12.301Z,99.99
2017-09-01T03:15:21.290Z,99.99
2017-09-01T03:16:30.133Z,99.99
2017-09-01T03:17:38.975Z,99.99
2017-09-01T03:18:47.813Z,99.99
2017-09-01T03:19:56.655Z,99.99
2017-09-01T03:21:05.646Z,99.99
2017-09-01T03:22:14.487Z,99.99
2017-09-01T03:23:23.329Z,99.99
2017-09-01T03:24:32.169Z,99.99
2017-09-01T03:25:41.012Z,99.99
2017-09-01T03:26:50.003Z,99.99
2017-09-01T03:27:59.175Z,99.99
2017-09-01T03:29:08.013Z,99.99
2017-09-01T03:30:16.858Z,99.99
2017-09-01T03:31:26.033Z,99.99
2017-09-01T03:32:35.172Z,99.99
2017-09-01T03:33:44.347Z,99.99
2017-09-01T03:34:53.185Z,99.99
2017-09-01T03:36:02.025Z,99.99
2017-09-01T03:37:10.864Z,99.99
2017-09-01T03:38:19.854Z,99.99
2017-09-01T03:39:28.697Z,99.99
2017-09-01T03:40:37.540Z,99.99
2017-09-01T03:41:46.383Z,99.99
2017-09-01T03:42:55.226Z,99.99
2017-09-01T03:44:04.169Z,99.99
2017-09-01T03:45:13.007Z,99.99
2017-09-01T03:46:21.850Z,99.99
2017-09-01T03:47:30.691Z,99.99
2017-09-01T03:48:39.532Z,99.99
2017-09-01T03:49:48.807Z,99.99
2017-09-01T03:50:57.648Z,99.99
2017-09-01T03:52:06.488Z,99.99
2017-09-01T03:53:15.327Z,99.99
2017-09-01T03:54:24.166Z,99.99
2017-09-01T03:55:33.010Z,99.99
2017-09-01T03:56:41.851Z,99.99
2017-09-01T03:57:50.691Z,99.99
2017-09-01T03:58:59.530Z,99.99
2017-09-01T04:00:08.372Z,99.99
2017-09-01T04:01:17.314Z,99.99
2017-09-01T04:02:26.155Z,99.99
2017-09-01T04:03:35.002Z,99.99
2017-09-01T04:04:43.838Z,99.99
2017-09-01T04:05:53.015Z,99.99
2017-09-01T04:07:02.105Z,99.99
2017-09-01T04:08:10.945Z,99.99
2017-09-01T04:09:19.784Z,99.99
2017-09-01T04:10:28.625Z,99.99
2017-09-01T04:11:37.466Z,99.99
2017-09-01T04:12:46.409Z,99.99
2017-09-01T04:13:55.249Z,99.99
2017-09-01T04:15:04.091Z,99.99
2017-09-01T04:16:13.268Z,99.99
2017-09-01T04:17:22.108Z,99.99
2017-09-01T04:18:31.048Z,99.99
2017-09-01T04:19:39.893Z,99.99
2017-09-01T04:20:48.729Z,99.99
2017-09-01T04:21:57.571Z,99.99
2017-09-01T04:23:06.409Z,99.99
2017-09-01T04:24:15.550Z,99.99
2017-09-01T04:25:24.393Z,99.99
2017-09-01T04:26:33.229Z,99.99
2017-09-01T04:27:42.070Z,99.99
2017-09-01T04:28:50.912Z,99.99
2017-09-01T04:30:00.139Z,99.99
2017-09-01T04:31:08.985Z,99.99
2017-09-01T04:32:17.823Z,99.99
2017-09-01T04:33:26.661Z,99.99
2017-09-01T04:34:35.504Z,99.99
2017-09-01T04:35:44.345Z,99.99
2017-09-01T04:36:53.187Z,99.99
2017-09-01T04:38:02.030Z,99.99
2017-09-01T04:39:10.871Z,99.99
2017-09-01T04:40:19.711Z,99.99
2017-09-01T04:41:28.853Z,99.99
2017-09-01T04:42:37.695Z,99.99
2017-09-01T04:43:46.534Z,99.99
2017-09-01T04:44:55.374Z,99.99
2017-09-01T04:46:04.214Z,99.99
2017-09-01T04:47:13.209Z,99.99
2017-09-01T04:48:22.058Z,99.99
2017-09-01T04:49:31.226Z,99.99
2017-09-01T04:50:40.067Z,99.99
2017-09-01T04:51:49.239Z,99.99
2017-09-01T04:52:58.078Z,99.99
2017-09-01T04:54:06.920Z,99.99
2017-09-01T04:55:16.090Z,99.99
2017-09-01T04:56:24.930Z,99.99
2017-09-01T04:57:33.768Z,99.99
2017-09-01T04:58:42.662Z,99.99
2017-09-01T04:59:51.505Z,99.99
2017-09-01T05:01:00.345Z,99.99
2017-09-01T05:02:09.188Z,99.99
2017-09-01T05:03:18.032Z,99.99
2017-09-01T05:04:27.025Z,99.99
2017-09-01T05:05:35.866Z,99.99
2017-09-01T05:06:44.712Z,99.99
2017-09-01T05:07:53.558Z,99.99
2017-09-01T05:09:02.399Z,99.99
2017-09-01T05:10:11.394Z,99.99
2017-09-01T05:11:20.573Z,99.99
2017-09-01T05:12:29.415Z,99.99
2017-09-01T05:13:38.256Z,99.99
2017-09-01T05:14:47.101Z,99.99
2017-09-01T05:15:56.473Z,99.99
2017-09-01T05:17:05.315Z,99.99
2017-09-01T05:18:14.158Z,99.99
2017-09-01T05:19:23.001Z,99.99
2017-09-01T05:20:31.842Z,99.99
2017-09-01T05:21:40.934Z,99.99
2017-09-01T05:22:49.776Z,99.99
2017-09-01T05:23:58.618Z,99.99
2017-09-01T05:25:07.462Z,99.99
2017-09-01T05:26:16.301Z,99.99
2017-09-01T05:27:25.295Z,99.99
2017-09-01T05:28:34.135Z,99.99
2017-09-01T05:29:43.030Z,99.99
2017-09-01T05:30:51.872Z,99.99
2017-09-01T05:32:00.714Z,99.99
2017-09-01T05:33:09.656Z,99.99
2017-09-01T05:34:18.500Z,99.99
2017-09-01T05:35:27.341Z,99.99
2017-09-01T05:36:36.185Z,99.99
2017-09-01T05:37:45.358Z,99.99
2017-09-01T05:38:54.352Z,99.99
2017-09-01T05:40:03.194Z,99.99
2017-09-01T05:41:12.036Z,99.99
2017-09-01T05:42:20.878Z,99.99
2017-09-01T05:43:29.816Z,99.99
2017-09-01T05:44:38.807Z,99.99
2017-09-01T05:45:47.647Z,99.99
2017-09-01T05:46:56.491Z,99.99
2017-09-01T05:48:05.338Z,99.99
2017-09-01T05:49:14.174Z,99.99
2017-09-01T05:50:23.118Z,99.99
2017-09-01T05:51:31.959Z,99.99
2017-09-01T05:52:40.802Z,99.99
2017-09-01T05:53:49.646Z,99.99
2017-09-01T05:54:58.490Z,99.99
2017-09-01T05:56:07.381Z,99.99
2017-09-01T05:57:16.223Z,99.99
2017-09-01T05:58:25.065Z,99.99
2017-09-01T05:59:33.907Z,99.99
2017-09-01T06:00:42.749Z,99.99
2017-09-01T06:01:51.744Z,99.99
2017-09-01T06:03:00.586Z,99.99
2017-09-01T06:04:09.432Z,99.99
2017-09-01T06:05:18.606Z,99.99
2017-09-01T06:06:27.484Z,99.99
2017-09-01T06:07:36.442Z,99.99
2017-09-01T06:08:45.286Z,99.99
2017-09-01T06:09:54.126Z,99.99
2017-09-01T06:11:02.970Z,99.99
2017-09-01T06:12:11.816Z,99.99
2017-09-01T06:13:20.708Z,99.99
2017-09-01T06:14:29.549Z,99.99
2017-09-01T06:15:38.396Z,99.99
2017-09-01T06:16:47.576Z,99.99
2017-09-01T06:17:56.421Z,99.99
2017-09-01T06:19:05.602Z,99.99
2017-09-01T06:20:14.446Z,99.99
2017-09-01T06:21:23.290Z,99.99
2017-09-01T06:22:32.136Z,99.99
2017-09-01T06:23:40.979Z,99.99
2017-09-01T06:24:49.975Z,99.99
2017-09-01T06:25:58.821Z,99.99
2017-09-01T06:27:07.668Z,99.99
2017-09-01T06:28:16.515Z,99.99
2017-09-01T06:29:25.360Z,99.99
2017-09-01T06:30:34.584Z,99.99
2017-09-01T06:31:43.426Z,99.99
2017-09-01T06:32:52.270Z,99.99
2017-09-01T06:34:01.115Z,99.99
2017-09-01T06:35:10.293Z,99.99
2017-09-01T06:36:19.292Z,99.99
2017-09-01T06:37:28.139Z,99.99
2017-09-01T06:38:37.317Z,99.99
2017-09-01T06:39:46.165Z,99.99
2017-09-01T06:40:55.012Z,99.99
2017-09-01T06:42:04.010Z,99.99
2017-09-01T06:43:13.185Z,99.99
2017-09-01T06:44:22.031Z,99.99
2017-09-01T06:45:30.878Z,99.99
2017-09-01T06:46:40.061Z,99.99
2017-09-01T06:47:49.385Z,99.99
2017-09-01T06:48:58.227Z,99.99
2017-09-01T06:50:07.069Z,99.99
2017-09-01T06:51:15.913Z,99.99
2017-09-01T06:52:24.757Z,99.99
2017-09-01T06:53:33.850Z,99.99
2017-09-01T06:54:42.696Z,99.99
2017-09-01T06:55:51.538Z,99.99
2017-09-01T06:57:00.383Z,99.99
2017-09-01T06:58:09.225Z,99.99
2017-09-01T06:59:18.269Z,99.99
2017-09-01T07:00:27.112Z,99.99
2017-09-01T07:01:35.962Z,99.99
2017-09-01T07:02:44.808Z,99.99
2017-09-01T07:03:53.653Z,99.99
2017-09-01T07:05:02.648Z,99.99
2017-09-01T07:06:11.493Z,99.99
2017-09-01T07:07:20.340Z,99.99
2017-09-01T07:08:29.183Z,99.99
2017-09-01T07:09:38.026Z,99.99
2017-09-01T07:10:47.175Z,99.99
2017-09-01T07:11:56.021Z,99.99
2017-09-01T07:13:04.864Z,99.99
2017-09-01T07:14:13.707Z,99.99
2017-09-01T07:15:22.551Z,99.99
2017-09-01T07:16:31.548Z,99.99
2017-09-01T07:17:40.726Z,99.99
2017-09-01T07:18:49.571Z,99.99
2017-09-01T07:19:58.417Z,99.99
2017-09-01T07:21:07.266Z,99.99
2017-09-01T07:22:16.412Z,99.99
2017-09-01T07:23:25.257Z,99.99
2017-09-01T07:24:34.101Z,99.99
2017-09-01T07:25:42.947Z,99.99
2017-09-01T07:26:51.792Z,99.99
2017-09-01T07:28:00.784Z,99.99
2017-09-01T07:29:09.627Z,99.99
2017-09-01T07:30:18.469Z,99.99
2017-09-01T07:31:27.315Z,99.99
2017-09-01T07:32:36.160Z,99.99
2017-09-01T07:33:45.109Z,99.99
2017-09-01T07:34:53.956Z,99.99
2017-09-01T07:36:03.134Z,99.99
2017-09-01T07:37:11.979Z,99.99
2017-09-01T07:38:20.826Z,99.99
2017-09-01T07:39:29.724Z,99.99
2017-09-01T07:40:38.572Z,99.99
2017-09-01T07:41:47.419Z,99.99
2017-09-01T07:42:56.268Z,99.99
2017-09-01T07:44:05.121Z,99.99
2017-09-01T07:45:14.364Z,99.99
2017-09-01T07:46:23.212Z,99.99
2017-09-01T07:47:32.064Z,99.99
2017-09-01T07:48:40.913Z,99.99
2017-09-01T07:49:49.763Z,99.99
2017-09-01T07:50:58.909Z,99.99
2017-09-01T07:52:07.757Z,99.99
2017-09-01T07:53:16.604Z,99.99
2017-09-01T07:54:25.450Z,99.99
2017-09-01T07:55:34.296Z,99.99
2017-09-01T07:56:43.246Z,99.99
2017-09-01T07:57:52.094Z,99.99
2017-09-01T07:59:00.942Z,99.99
2017-09-01T08:00:09.790Z,99.99
2017-09-01T08:01:18.638Z,99.99
2017-09-01T08:02:27.734Z,99.99
2017-09-01T08:03:36.586Z,99.99
2017-09-01T08:04:45.429Z,99.99
2017-09-01T08:05:54.275Z,99.99
2017-09-01T08:07:03.123Z,99.99
2017-09-01T08:08:12.220Z,99.99
2017-09-01T08:09:21.069Z,99.99
2017-09-01T08:10:29.916Z,99.99
2017-09-01T08:11:38.764Z,99.99
2017-09-01T08:12:47.951Z,99.99
2017-09-01T08:13:57.096Z,99.99
2017-09-01T08:15:05.942Z,99.99
2017-09-01T08:16:14.790Z,99.99
2017-09-01T08:17:23.643Z,99.99
2017-09-01T08:18:32.490Z,99.99
2017-09-01T08:19:41.636Z,99.99
2017-09-01T08:20:50.492Z,99.99
2017-09-01T08:21:59.343Z,99.99
2017-09-01T08:23:08.189Z,99.99
2017-09-01T08:24:17.711Z,99.99
2017-09-01T08:25:26.710Z,99.99
2017-09-01T08:26:35.556Z,99.99
2017-09-01T08:27:44.403Z,99.99
2017-09-01T08:28:53.252Z,99.99
2017-09-01T08:30:02.101Z,99.99
2017-09-01T08:31:11.529Z,99.99
2017-09-01T08:32:20.374Z,99.99
2017-09-01T08:33:29.219Z,99.99
2017-09-01T08:34:38.069Z,99.99
2017-09-01T08:35:46.915Z,99.99
2017-09-01T08:36:55.914Z,99.99
2017-09-01T08:38:05.099Z,99.99
2017-09-01T08:39:13.948Z,99.99
2017-09-01T08:40:22.794Z,99.99
2017-09-01T08:41:31.641Z,99.99
2017-09-01T08:42:40.539Z,99.99
2017-09-01T08:43:49.388Z,99.99
2017-09-01T08:44:58.234Z,99.99
2017-09-01T08:46:07.082Z,99.99
2017-09-01T08:47:15.929Z,99.99
2017-09-01T08:48:24.929Z,99.99
2017-09-01T08:49:33.777Z,99.99
2017-09-01T08:50:42.628Z,99.99
2017-09-01T08:51:51.478Z,99.99
2017-09-01T08:53:00.327Z,99.99
2017-09-01T08:54:09.281Z,99.99
2017-09-01T08:55:18.134Z,99.99
2017-09-01T08:56:26.982Z,99.99
2017-09-01T08:57:36.180Z,99.99
2017-09-01T08:58:45.029Z,99.99
2017-09-01T08:59:54.026Z,99.99
2017-09-01T09:01:02.874Z,99.99
2017-09-01T09:02:11.718Z,99.99
2017-09-01T09:03:20.567Z,99.99
2017-09-01T09:04:29.752Z,99.99
2017-09-01T09:05:38.651Z,99.99
2017-09-01T09:06:47.503Z,99.99
2017-09-01T09:07:56.350Z,99.99
2017-09-01T09:09:05.201Z,99.99
2017-09-01T09:10:14.057Z,99.99
2017-09-01T09:11:23.055Z,99.99
2017-09-01T09:12:31.900Z,99.99
2017-09-01T09:13:40.748Z,99.99
2017-09-01T09:14:49.596Z,99.99
2017-09-01T09:15:58.445Z,99.99
2017-09-01T09:17:07.495Z,99.99
2017-09-01T09:18:16.343Z,99.99
2017-09-01T09:19:25.193Z,99.99
2017-09-01T09:20:34.043Z,99.99
2017-09-01T09:21:42.889Z,99.99
2017-09-01T09:22:51.736Z,99.99
2017-09-01T09:24:00.586Z,99.99
2017-09-01T09:25:09.436Z,99.99
2017-09-01T09:26:18.284Z,99.99
2017-09-01T09:27:27.136Z,99.99
2017-09-01T09:28:36.464Z,99.99
2017-09-01T09:29:45.312Z,99.99
2017-09-01T09:30:54.162Z,99.99
2017-09-01T09:32:03.010Z,99.99
2017-09-01T09:33:11.862Z,99.99
2017-09-01T09:34:20.964Z,99.99
2017-09-01T09:35:29.813Z,99.99
2017-09-01T09:36:38.663Z,99.99
2017-09-01T09:37:47.508Z,99.99
2017-09-01T09:38:56.361Z,99.99
2017-09-01T09:40:05.210Z,99.99
2017-09-01T09:41:14.060Z,99.99
2017-09-01T09:42:22.909Z,99.99
2017-09-01T09:43:31.758Z,99.99
2017-09-01T09:44:40.607Z,99.99
2017-09-01T09:45:49.506Z,99.99
2017-09-01T09:46:58.355Z,99.99
2017-09-01T09:48:07.204Z,99.99
2017-09-01T09:49:16.057Z,99.99
2017-09-01T09:50:25.239Z,99.99
2017-09-01T09:51:34.238Z,99.99
2017-09-01T09:52:43.088Z,99.99
2017-09-01T09:53:51.937Z,99.99
2017-09-01T09:55:00.785Z,99.99
2017-09-01T09:56:09.633Z,99.99
2017-09-01T09:57:18.637Z,99.99
2017-09-01T09:58:27.499Z,99.99
2017-09-01T09:59:36.350Z,99.99
2017-09-01T10:00:45.201Z,99.99
2017-09-01T10:01:54.049Z,99.99
2017-09-01T10:03:02.998Z,99.99
2017-09-01T10:04:12.183Z,99.99
2017-09-01T10:05:21.033Z,99.99
2017-09-01T10:06:29.882Z,99.99
2017-09-01T10:07:38.734Z,99.99
2017-09-01T10:08:47.632Z,99.99
2017-09-01T10:09:56.480Z,99.99
2017-09-01T10:11:05.328Z,99.99
2017-09-01T10:12:14.179Z,99.99
2017-09-01T10:13:23.026Z,99.99
2017-09-01T10:14:32.025Z,99.99
2017-09-01T10:15:40.875Z,99.99
2017-09-01T10:16:49.725Z,99.99
2017-09-01T10:17:58.576Z,99.99
2017-09-01T10:19:07.429Z,99.99
2017-09-01T10:20:16.430Z,99.99
2017-09-01T10:21:25.280Z,99.99
2017-09-01T10:22:34.135Z,99.99
2017-09-01T10:23:42.981Z,99.99
2017-09-01T10:24:51.833Z,99.99
2017-09-01T10:26:00.881Z,99.99
2017-09-01T10:27:09.729Z,99.99
2017-09-01T10:28:18.580Z,99.99
2017-09-01T10:29:27.431Z,99.99
2017-09-01T10:30:36.282Z,99.99
2017-09-01T10:31:45.564Z,99.99
2017-09-01T10:32:54.415Z,99.99
2017-09-01T10:34:03.266Z,99.99
2017-09-01T10:35:12.116Z,99.99
2017-09-01T10:36:20.967Z,99.99
2017-09-01T10:37:30.352Z,99.99
2017-09-01T10:38:39.203Z,99.99
2017-09-01T10:39:48.053Z,99.99
2017-09-01T10:40:56.904Z,99.99
2017-09-01T10:42:05.758Z,99.99
2017-09-01T10:43:14.859Z,99.99
2017-09-01T10:44:24.049Z,99.73
2017-09-01T10:45:32.899Z,99.63
2017-09-01T10:46:41.749Z,98.96
2017-09-01T10:47:50.600Z,99.44
2017-09-01T10:48:59.600Z,99.99
2017-09-01T10:50:08.451Z,99.99
2017-09-01T10:51:17.300Z,97.33
2017-09-01T10:52:26.152Z,99.99
2017-09-01T10:53:35.004Z,99.99
2017-09-01T10:54:43.956Z,99.99
2017-09-01T10:55:52.811Z,99.99
2017-09-01T10:57:01.663Z,99.99
2017-09-01T10:58:10.515Z,99.99
2017-09-01T10:59:19.366Z,99.99
2017-09-01T11:00:28.318Z,99.99
2017-09-01T11:01:37.169Z,98.14
2017-09-01T11:02:46.021Z,96.08
2017-09-01T11:03:54.871Z,96.13
2017-09-01T11:05:03.724Z,99.2
2017-09-01T11:06:12.621Z,98.72
2017-09-01T11:07:21.473Z,99.97
2017-09-01T11:08:30.331Z,96.32
2017-09-01T11:09:39.183Z,99.99
2017-09-01T11:10:48.036Z,99.99
2017-09-01T11:11:57.189Z,99.58
2017-09-01T11:13:06.373Z,99.99
2017-09-01T11:14:15.225Z,97.86
2017-09-01T11:15:24.076Z,94.4
2017-09-01T11:16:32.932Z,88.73
2017-09-01T11:17:41.785Z,88.59
2017-09-01T11:18:50.638Z,92.38
2017-09-01T11:19:59.488Z,89.22
2017-09-01T11:21:08.339Z,89.79
2017-09-01T11:22:17.192Z,97.24
2017-09-01T11:23:26.777Z,89.26
2017-09-01T11:24:35.630Z,87.43
2017-09-01T11:25:44.483Z,89.36
2017-09-01T11:26:53.335Z,90.31
2017-09-01T11:28:02.184Z,90.89
2017-09-01T11:29:11.236Z,96.27
2017-09-01T11:30:20.088Z,91.18
2017-09-01T11:31:28.940Z,92.81
2017-09-01T11:32:37.789Z,94.54
2017-09-01T11:33:46.641Z,91.08
2017-09-01T11:34:55.643Z,86.66
2017-09-01T11:36:04.496Z,85.32
2017-09-01T11:37:13.679Z,85.22
2017-09-01T11:38:22.531Z,85.8
2017-09-01T11:39:31.715Z,88.3
2017-09-01T11:40:40.667Z,98.86
2017-09-01T11:41:49.517Z,99.99
2017-09-01T11:42:58.369Z,99.99
2017-09-01T11:44:07.219Z,90.03
2017-09-01T11:45:16.072Z,99.73
2017-09-01T11:46:24.972Z,91.85
2017-09-01T11:47:33.822Z,88.49
2017-09-01T11:48:42.673Z,92.09
2017-09-01T11:49:51.862Z,90.36
2017-09-01T11:51:00.751Z,88.06
2017-09-01T11:52:09.611Z,88.24
2017-09-01T11:53:18.465Z,86.9
2017-09-01T11:54:27.329Z,99.01
2017-09-01T11:55:36.513Z,90.55
2017-09-01T11:56:45.369Z,81.52
2017-09-01T11:57:54.229Z,81.42
2017-09-01T11:59:03.078Z,80.07
2017-09-01T12:00:11.929Z,86.8
2017-09-01T12:01:21.116Z,89.88
2017-09-01T12:02:29.967Z,90.07
2017-09-01T12:03:38.819Z,91.22
2017-09-01T12:04:47.721Z,89.54
2017-09-01T12:05:56.574Z,90.69
2017-09-01T12:07:05.432Z,82.04
2017-09-01T12:08:14.284Z,81.65
2017-09-01T12:09:23.138Z,80.4
2017-09-01T12:10:31.986Z,82.81
2017-09-01T12:11:40.839Z,82.32
2017-09-01T12:12:49.693Z,84.44
2017-09-01T12:13:58.546Z,82.94
2017-09-01T12:15:07.401Z,84.48
2017-09-01T12:16:16.293Z,84.19
2017-09-01T12:17:25.150Z,84.1
2017-09-01T12:18:34.005Z,83.52
2017-09-01T12:19:42.859Z,86.89
2017-09-01T12:20:51.761Z,84.87
2017-09-01T12:22:00.637Z,91.51
2017-09-01T12:23:09.643Z,97.76
2017-09-01T12:24:18.501Z,85.06
2017-09-01T12:25:27.354Z,82.37
2017-09-01T12:26:36.208Z,88.81
2017-09-01T12:27:45.095Z,97.24
2017-09-01T12:28:54.101Z,93.77
2017-09-01T12:30:02.953Z,86.74
2017-09-01T12:31:11.838Z,90.73
2017-09-01T12:32:21.030Z,90.16
2017-09-01T12:33:30.220Z,94.97
2017-09-01T12:34:39.176Z,91.22
2017-09-01T12:35:48.031Z,91.13
2017-09-01T12:36:56.893Z,92.76
2017-09-01T12:38:06.077Z,93.43
2017-09-01T12:39:14.930Z,93.05
2017-09-01T12:40:24.085Z,93.82
2017-09-01T12:41:32.939Z,85.39
2017-09-01T12:42:42.129Z,85.87
2017-09-01T12:43:50.987Z,81.73
2017-09-01T12:44:59.843Z,78.27
2017-09-01T12:46:08.898Z,83.28
2017-09-01T12:47:17.758Z,81.1
2017-09-01T12:48:26.614Z,82.83
2017-09-01T12:49:35.466Z,79.94
2017-09-01T12:50:44.320Z,86.88
2017-09-01T12:51:53.390Z,77.31
2017-09-01T12:53:02.245Z,77.25
2017-09-01T12:54:11.101Z,73.68
2017-09-01T12:55:20.088Z,74.93
2017-09-01T12:56:28.951Z,76.38
2017-09-01T12:57:37.956Z,76.86
2017-09-01T12:58:46.811Z,84.38
2017-09-01T12:59:56.016Z,81.1
2017-09-01T13:01:04.870Z,86.59
2017-09-01T13:02:13.724Z,89.48
2017-09-01T13:03:22.617Z,89.24
2017-09-01T13:04:31.473Z,78.98
2017-09-01T13:05:40.349Z,78.69
2017-09-01T13:06:49.190Z,78.02
2017-09-01T13:07:58.043Z,81.1
2017-09-01T13:09:07.048Z,80.91
2017-09-01T13:10:16.234Z,82.64
2017-09-01T13:11:25.093Z,78.59
2017-09-01T13:12:33.971Z,86.11
2017-09-01T13:13:43.566Z,77.25
2017-09-01T13:14:52.873Z,80.04
2017-09-01T13:16:02.039Z,86.98
2017-09-01T13:17:10.895Z,82.54
2017-09-01T13:18:20.006Z,87.94
2017-09-01T13:19:28.940Z,84.66
2017-09-01T13:20:38.012Z,79.08
2017-09-01T13:21:46.866Z,77.38
2017-09-01T13:22:55.773Z,76.13
2017-09-01T13:24:04.627Z,76.13
2017-09-01T13:25:13.513Z,77.38
2017-09-01T13:26:22.751Z,78.92
2017-09-01T13:27:32.187Z,78.19
2017-09-01T13:28:41.040Z,76.93
2017-09-01T13:29:49.892Z,84.84
2017-09-01T13:30:58.752Z,75.74
2017-09-01T13:32:07.996Z,75.16
2017-09-01T13:33:16.882Z,78.06
2017-09-01T13:34:25.742Z,81.66
2017-09-01T13:35:34.601Z,82.34
2017-09-01T13:36:43.459Z,76.03
2017-09-01T13:37:52.527Z,74.88
2017-09-01T13:39:01.562Z,80.89
2017-09-01T13:40:10.418Z,78.73
2017-09-01T13:41:19.275Z,76.13
2017-09-01T13:42:28.130Z,76.13
2017-09-01T13:43:37.095Z,75.1
2017-09-01T13:44:45.953Z,83.2
2017-09-01T13:45:54.810Z,84.22
2017-09-01T13:47:03.668Z,81.72
2017-09-01T13:48:12.520Z,81.76
2017-09-01T13:49:21.551Z,78.38
2017-09-01T13:50:30.405Z,74.43
2017-09-01T13:51:39.258Z,77.33
2017-09-01T13:52:48.115Z,73.08
2017-09-01T13:53:56.972Z,70.57
2017-09-01T13:55:05.977Z,82.82
2017-09-01T13:56:14.839Z,73.11
2017-09-01T13:57:23.695Z,81.32
2017-09-01T13:58:32.551Z,75.24
2017-09-01T13:59:41.423Z,70.9
2017-09-01T14:00:50.589Z,76.3
2017-09-01T14:01:59.448Z,81.16
2017-09-01T14:03:08.305Z,85.89
2017-09-01T14:04:17.165Z,79.14
2017-09-01T14:05:26.023Z,81.16
2017-09-01T14:06:35.032Z,86.96
2017-09-01T14:07:43.891Z,82.03
2017-09-01T14:08:52.750Z,77.21
2017-09-01T14:10:01.609Z,76.86
2017-09-01T14:11:10.801Z,77.44
2017-09-01T14:12:19.713Z,76.76
2017-09-01T14:13:28.569Z,76.7
2017-09-01T14:14:37.428Z,79.02
2017-09-01T14:15:46.617Z,74.96
2017-09-01T14:16:55.475Z,72.78
2017-09-01T14:18:04.383Z,79.25
2017-09-01T14:19:13.244Z,81.09
2017-09-01T14:20:22.105Z,74.52
2017-09-01T14:21:30.965Z,83.99
2017-09-01T14:22:39.826Z,75.1
2017-09-01T14:23:48.987Z,73.49
2017-09-01T14:24:57.847Z,72.14
2017-09-01T14:26:06.707Z,74.21
2017-09-01T14:27:15.573Z,72.66
2017-09-01T14:28:24.767Z,71.3
2017-09-01T14:29:33.781Z,79.97
2017-09-01T14:30:42.978Z,73.59
2017-09-01T14:31:52.176Z,77.32
2017-09-01T14:33:01.038Z,75.2
2017-09-01T14:34:09.900Z,75.74
2017-09-01T14:35:18.964Z,76.7
2017-09-01T14:36:27.824Z,78.34
2017-09-01T14:37:36.916Z,75.89
2017-09-01T14:38:45.777Z,74.64
2017-09-01T14:39:54.635Z,77.05
2017-09-01T14:41:03.811Z,78.89
2017-09-01T14:42:12.669Z,75.6
2017-09-01T14:43:21.526Z,76.53
2017-09-01T14:44:30.389Z,76.63
2017-09-01T14:45:39.313Z,76.24
2017-09-01T14:46:48.310Z,77.5
2017-09-01T14:47:57.165Z,78.94